Time;durP1;ratioP1;P1;durP2;ratioP2;P2;SDS_P1;SDS_P2;PMS_P1;PMS_P2;Temp;Humidity;BMP_temperature;BMP_pressure;BME280_temperature;BME280_humidity;BME280_pressure;Samples;Min_cycle;Max_cycle;Signal;HPM_P1;HPM_P2
2023/01/12 00:01:20;;;;;;;13.67;2.87;;;9.60;99.90;;;;;;5040663;28;20443;-84
2023/01/12 00:03:46;;;;;;;7.90;2.20;;;9.60;99.90;;;;;;5041623;28;20478;-84
2023/01/12 00:06:13;;;;;;;11.60;2.70;;;9.50;99.90;;;;;;5037546;28;20453;-85
2023/01/12 00:08:38;;;;;;;14.50;2.50;;;9.50;99.90;;;;;;5030155;28;20460;-84
2023/01/12 00:11:04;;;;;;;11.20;2.10;;;9.50;99.90;;;;;;5040181;28;20443;-84
2023/01/12 00:13:31;;;;;;;10.93;2.83;;;9.50;99.90;;;;;;5026398;28;20229;-84
2023/01/12 00:16:33;;;;;;;10.03;2.60;;;9.50;99.90;;;;;;5043486;28;20177;-84
2023/01/12 00:18:44;;;;;;;8.53;2.93;;;9.50;99.90;;;;;;5030857;28;21039;-85
2023/01/12 00:21:09;;;;;;;7.93;2.40;;;9.40;99.90;;;;;;5031309;28;20528;-85
2023/01/12 00:23:35;;;;;;;8.33;2.40;;;9.40;99.90;;;;;;5035021;28;20189;-84
2023/01/12 00:26:00;;;;;;;11.50;2.77;;;9.40;1.00;;;;;;5034463;28;20187;-85
2023/01/12 00:28:26;;;;;;;8.07;2.60;;;9.40;1.00;;;;;;5020906;28;20211;-85
2023/01/12 00:30:51;;;;;;;15.83;2.80;;;9.40;1.00;;;;;;5027328;28;20267;-84
2023/01/12 00:33:18;;;;;;;8.97;2.80;;;9.40;1.00;;;;;;5030503;28;20261;-84
2023/01/12 00:35:44;;;;;;;9.17;2.57;;;9.40;1.00;;;;;;5041368;28;20209;-84
2023/01/12 00:38:10;;;;;;;7.67;2.60;;;9.40;1.00;;;;;;5034133;28;20945;-83
2023/01/12 00:40:35;;;;;;;12.13;3.30;;;9.40;1.00;;;;;;5035978;28;20882;-85
2023/01/12 00:45:52;;;;;;;5.73;2.50;;;9.50;1.00;;;;;;5041938;28;20649;-85
2023/01/12 00:48:18;;;;;;;10.20;2.70;;;9.50;1.00;;;;;;5038558;28;20471;-84
2023/01/12 00:50:45;;;;;;;8.10;2.60;;;9.50;1.00;;;;;;5037510;28;20452;-85
2023/01/12 00:53:11;;;;;;;12.90;3.47;;;9.50;1.00;;;;;;5031337;28;20529;-84
2023/01/12 00:55:36;;;;;;;15.57;3.37;;;9.50;1.00;;;;;;5037538;28;20453;-83
2023/01/12 00:58:02;;;;;;;5.20;2.67;;;9.50;1.00;;;;;;5047433;28;20469;-85
2023/01/12 01:00:28;;;;;;;18.23;3.17;;;9.40;1.00;;;;;;5043911;28;20606;-85
2023/01/12 01:02:53;;;;;;;15.23;2.70;;;9.40;1.00;;;;;;5028677;28;20187;-84
2023/01/12 01:05:19;;;;;;;13.83;3.00;;;9.40;1.00;;;;;;5037901;28;20462;-84
2023/01/12 01:07:46;;;;;;;8.57;2.80;;;9.40;1.00;;;;;;5042832;28;20195;-84
2023/01/12 01:10:12;;;;;;;20.33;3.27;;;9.40;1.00;;;;;;5040876;28;20217;-85
2023/01/12 01:12:38;;;;;;;7.77;2.80;;;9.40;1.00;;;;;;5034689;28;20472;-84
2023/01/12 01:15:04;;;;;;;27.93;4.37;;;9.40;1.00;;;;;;5040039;28;20436;-85
2023/01/12 01:17:29;;;;;;;10.20;2.80;;;9.40;1.00;;;;;;5037843;28;20206;-85
2023/01/12 01:19:55;;;;;;;9.77;2.90;;;9.50;1.00;;;;;;5030989;28;20471;-85
2023/01/12 01:22:20;;;;;;;18.17;3.47;;;9.50;1.00;;;;;;5026838;28;20178;-84
2023/01/12 01:24:49;;;;;;;7.93;2.87;;;9.50;1.00;;;;;;5030849;28;20260;-85
2023/01/12 01:27:15;;;;;;;14.77;2.90;;;9.50;1.00;;;;;;5038441;28;20184;-84
2023/01/12 01:29:40;;;;;;;15.53;3.87;;;9.50;1.00;;;;;;5039250;28;20463;-84
2023/01/12 01:32:06;;;;;;;11.97;2.70;;;9.50;1.00;;;;;;5043771;28;20185;-84
2023/01/12 01:34:32;;;;;;;9.50;2.60;;;9.50;1.00;;;;;;5039275;28;20265;-85
2023/01/12 01:37:00;;;;;;;13.40;3.60;;;9.50;99.90;;;;;;5034901;28;20175;-85
2023/01/12 01:39:26;;;;;;;17.20;3.30;;;9.60;99.90;;;;;;5026271;28;20206;-85
2023/01/12 01:41:51;;;;;;;9.90;2.73;;;9.60;99.90;;;;;;5034849;28;20452;-85
2023/01/12 01:44:29;;;;;;;16.47;3.33;;;9.60;99.90;;;;;;5046210;28;20190;-85
2023/01/12 01:46:57;;;;;;;13.17;2.97;;;9.60;99.90;;;;;;5031168;28;20225;-85
2023/01/12 01:49:33;;;;;;;9.13;2.67;;;9.60;99.90;;;;;;5034903;28;20511;-85
2023/01/12 01:52:06;;;;;;;11.80;2.90;;;9.60;99.90;;;;;;5044132;28;20936;-85
2023/01/12 01:54:36;;;;;;;9.30;2.57;;;9.60;99.90;;;;;;5034725;28;20469;-84
2023/01/12 01:57:03;;;;;;;9.83;2.50;;;9.60;99.90;;;;;;5028157;28;20471;-84
2023/01/12 01:59:33;;;;;;;11.77;2.60;;;9.70;99.90;;;;;;5034403;28;20476;-85
2023/01/12 02:01:59;;;;;;;13.43;2.87;;;9.70;99.90;;;;;;5025447;28;20441;-85
2023/01/12 02:04:25;;;;;;;18.77;3.73;;;9.70;99.90;;;;;;5049229;28;20498;-85
2023/01/12 02:06:53;;;;;;;12.30;3.40;;;9.70;99.90;;;;;;5036362;28;20448;-85
2023/01/12 02:09:25;;;;;;;19.50;3.60;;;9.80;99.90;;;;;;5036171;28;20222;-85
2023/01/12 02:17:34;;;;;;;7.90;2.20;;;9.90;93.80;;;;;;5030865;28;20453;-85
2023/01/12 02:20:34;;;;;;;15.40;3.00;;;9.90;60.20;;;;;;5034490;28;20542;-85
2023/01/12 02:23:30;;;;;;;20.03;2.93;;;9.90;27.30;;;;;;5042120;28;20445;-84
2023/01/12 02:26:01;;;;;;;13.87;3.10;;;9.90;19.20;;;;;;5043576;28;20551;-85
2023/01/12 02:28:54;;;;;;;10.33;2.10;;;9.90;40.00;;;;;;5038101;28;20506;-85
2023/01/12 02:31:35;;;;;;;15.20;2.77;;;9.90;65.10;;;;;;5026677;28;20838;-85
2023/01/12 02:34:08;;;;;;;14.70;3.60;;;9.90;96.10;;;;;;5040684;28;20445;-85
2023/01/12 02:36:42;;;;;;;6.60;2.47;;;9.90;99.90;;;;;;5038763;28;20497;-85
2023/01/12 02:39:17;;;;;;;10.73;2.97;;;9.90;99.90;;;;;;5030432;28;20464;-85
2023/01/12 02:45:02;;;;;;;10.10;2.30;;;9.80;99.90;;;;;;5020372;28;20447;-83
2023/01/12 02:47:47;;;;;;;13.83;2.90;;;9.80;99.90;;;;;;5039760;28;20474;-84
2023/01/12 02:50:23;;;;;;;7.63;2.27;;;9.70;99.90;;;;;;5039137;28;20467;-85
2023/01/12 02:52:55;;;;;;;12.17;2.77;;;9.70;99.90;;;;;;5031485;28;20440;-84
2023/01/12 02:55:22;;;;;;;13.63;3.33;;;9.60;1.00;;;;;;5026946;28;20925;-84
2023/01/12 02:57:49;;;;;;;11.30;3.13;;;9.60;1.00;;;;;;5034634;28;20485;-82
2023/01/12 03:00:17;;;;;;;13.27;2.67;;;9.60;1.00;;;;;;5041267;28;20459;-83
2023/01/12 03:02:42;;;;;;;15.00;2.90;;;9.50;1.00;;;;;;5040108;28;20455;-83
2023/01/12 03:05:08;;;;;;;18.47;3.20;;;9.50;1.00;;;;;;5023669;28;20439;-82
2023/01/12 03:07:36;;;;;;;15.63;4.37;;;9.40;1.00;;;;;;5029862;28;20202;-82
2023/01/12 03:10:19;;;;;;;15.63;2.77;;;9.40;1.00;;;;;;5040890;28;20490;-82
2023/01/12 03:12:47;;;;;;;14.47;3.00;;;9.40;1.00;;;;;;5026836;28;20532;-82
2023/01/12 03:15:16;;;;;;;16.37;4.27;;;9.40;1.00;;;;;;5025636;28;20453;-82
2023/01/12 03:17:48;;;;;;;17.87;3.27;;;9.40;1.00;;;;;;5030414;28;20520;-82
2023/01/12 03:20:19;;;;;;;16.60;4.10;;;9.40;1.00;;;;;;5034192;28;20541;-82
2023/01/12 03:22:48;;;;;;;8.20;3.30;;;9.40;1.00;;;;;;5019024;28;20430;-82
2023/01/12 03:25:16;;;;;;;10.37;2.50;;;9.30;1.00;;;;;;5029436;28;20460;-82
2023/01/12 03:27:47;;;;;;;10.73;2.97;;;9.30;1.00;;;;;;5020864;28;20460;-82
2023/01/12 03:30:23;;;;;;;12.33;2.77;;;9.40;1.00;;;;;;5034229;28;20979;-82
2023/01/12 03:32:50;;;;;;;13.13;2.93;;;9.40;1.00;;;;;;5035344;28;20854;-83
2023/01/12 03:35:18;;;;;;;25.00;3.07;;;9.30;1.00;;;;;;5046285;28;20515;-83
2023/01/12 03:37:55;;;;;;;11.63;3.03;;;9.30;1.00;;;;;;5021269;28;20480;-82
2023/01/12 03:40:28;;;;;;;8.50;2.90;;;9.30;1.00;;;;;;5027656;28;20468;-82
2023/01/12 03:43:14;;;;;;;9.43;2.80;;;9.30;1.00;;;;;;5032277;28;20526;-83
2023/01/12 03:46:13;;;;;;;14.70;2.83;;;9.30;1.00;;;;;;5041848;28;20529;-83
2023/01/12 03:48:48;;;;;;;9.53;2.87;;;9.30;1.00;;;;;;5023816;28;20877;-82
2023/01/12 03:51:19;;;;;;;13.63;3.27;;;9.40;1.00;;;;;;5032660;28;20783;-82
2023/01/12 03:53:48;;;;;;;18.47;2.83;;;9.40;1.00;;;;;;5025954;28;20489;-82
2023/01/12 03:56:16;;;;;;;9.80;3.47;;;9.40;1.00;;;;;;5042290;28;20427;-81
2023/01/12 03:58:42;;;;;;;17.07;2.70;;;9.40;1.00;;;;;;5026554;28;20503;-82
2023/01/12 04:01:07;;;;;;;6.53;2.07;;;9.40;1.00;;;;;;5031156;28;20443;-82
2023/01/12 04:03:33;;;;;;;12.93;2.63;;;9.40;1.00;;;;;;5032576;28;20557;-82
2023/01/12 04:05:58;;;;;;;10.60;2.70;;;9.40;1.00;;;;;;5041806;28;20190;-82
2023/01/12 04:08:24;;;;;;;9.90;2.70;;;9.40;1.00;;;;;;5044044;28;20209;-82
2023/01/12 04:10:49;;;;;;;6.30;2.13;;;9.40;1.00;;;;;;5021807;28;20677;-82
2023/01/12 04:13:15;;;;;;;13.53;2.73;;;9.40;1.00;;;;;;5034669;28;20243;-81
2023/01/12 04:15:43;;;;;;;9.90;1.83;;;9.40;1.00;;;;;;5040991;28;20560;-82
2023/01/12 04:18:10;;;;;;;12.57;2.30;;;9.40;1.00;;;;;;5036990;28;20186;-82
2023/01/12 04:20:37;;;;;;;9.83;2.27;;;9.30;1.00;;;;;;5039696;28;20456;-82
2023/01/12 04:23:03;;;;;;;11.47;2.40;;;9.30;1.00;;;;;;5031211;28;20480;-81
2023/01/12 04:25:28;;;;;;;5.90;2.07;;;9.30;1.00;;;;;;5039165;28;20477;-81
2023/01/12 04:28:03;;;;;;;9.10;3.00;;;9.30;1.00;;;;;;5028069;28;20859;-81
2023/01/12 04:30:30;;;;;;;9.23;2.57;;;9.30;1.00;;;;;;5034931;28;20201;-81
2023/01/12 04:32:58;;;;;;;14.13;3.30;;;9.30;1.00;;;;;;5031135;28;20444;-81
2023/01/12 04:35:24;;;;;;;9.67;2.20;;;9.20;1.00;;;;;;5035112;28;20443;-80
2023/01/12 04:37:52;;;;;;;5.27;2.50;;;9.20;1.00;;;;;;5038063;28;20529;-81
2023/01/12 04:40:19;;;;;;;6.43;2.10;;;9.20;1.00;;;;;;5048981;28;20490;-81
2023/01/12 04:43:03;;;;;;;8.47;2.77;;;9.20;1.00;;;;;;5022989;28;20437;-79
2023/01/12 04:45:33;;;;;;;11.93;2.60;;;9.20;1.00;;;;;;5030354;28;20971;-81
2023/01/12 04:48:07;;;;;;;5.30;2.00;;;9.20;1.00;;;;;;5043012;28;20984;-81
2023/01/12 04:50:33;;;;;;;10.20;2.13;;;9.20;1.00;;;;;;5040573;28;20473;-81
2023/01/12 04:53:04;;;;;;;7.73;2.40;;;9.20;1.00;;;;;;5048613;28;20531;-81
2023/01/12 04:55:30;;;;;;;12.03;3.03;;;9.20;1.00;;;;;;5035649;28;20501;-81
2023/01/12 04:57:56;;;;;;;8.00;2.23;;;9.20;1.00;;;;;;5039550;28;20602;-82
2023/01/12 05:00:21;;;;;;;8.53;2.70;;;9.20;1.00;;;;;;5023044;28;20266;-82
2023/01/12 05:02:47;;;;;;;13.13;2.87;;;9.10;1.00;;;;;;5047154;28;20472;-83
2023/01/12 05:05:13;;;;;;;19.10;2.10;;;9.10;1.00;;;;;;5048826;28;20187;-83
2023/01/12 05:10:21;;;;;;;9.97;1.83;;;9.10;1.00;;;;;;5037244;28;20238;-83
2023/01/12 05:10:28;;;;;;;10.60;2.90;;;9.10;1.00;;;;;;5030221;28;20536;-84
2023/01/12 05:12:54;;;;;;;8.87;2.20;;;9.10;1.00;;;;;;5039254;28;20446;-84
2023/01/12 05:15:20;;;;;;;10.83;2.70;;;9.10;1.00;;;;;;5036769;28;20436;-85
2023/01/12 05:17:45;;;;;;;11.43;2.10;;;9.10;1.00;;;;;;5021117;28;20285;-86
2023/01/12 05:20:11;;;;;;;7.77;1.87;;;9.00;1.00;;;;;;5030585;28;20206;-86
2023/01/12 05:22:36;;;;;;;8.57;2.37;;;9.00;1.00;;;;;;5030217;28;20211;-86
2023/01/12 05:25:02;;;;;;;6.80;2.97;;;9.10;1.00;;;;;;5035740;28;20590;-86
2023/01/12 05:27:28;;;;;;;6.80;1.80;;;9.00;1.00;;;;;;5038696;28;20180;-86
2023/01/12 05:29:56;;;;;;;5.23;1.90;;;9.00;1.00;;;;;;5029767;28;20223;-85
2023/01/12 05:32:21;;;;;;;16.53;2.33;;;9.00;1.00;;;;;;5029497;28;20179;-87
2023/01/12 05:34:47;;;;;;;7.90;2.50;;;9.00;1.00;;;;;;5028157;28;20433;-87
2023/01/12 05:37:15;;;;;;;8.67;1.70;;;9.00;1.00;;;;;;5035601;28;20499;-87
2023/01/12 05:39:40;;;;;;;19.33;2.83;;;9.00;1.00;;;;;;5033322;28;20206;-86
2023/01/12 05:44:50;;;;;;;10.00;2.73;;;9.00;1.00;;;;;;5035539;28;20189;-86
2023/01/12 05:47:16;;;;;;;11.77;2.70;;;9.00;1.00;;;;;;5036732;28;20931;-87
2023/01/12 05:49:41;;;;;;;12.60;2.50;;;9.00;1.00;;;;;;5030437;28;20214;-86
2023/01/12 05:52:07;;;;;;;12.70;2.00;;;9.00;1.00;;;;;;5017024;28;20189;-87
2023/01/12 05:54:32;;;;;;;15.33;2.47;;;9.00;1.00;;;;;;5024202;28;20182;-86
2023/01/12 05:56:58;;;;;;;7.80;2.00;;;9.00;1.00;;;;;;5027421;28;20676;-87
2023/01/12 05:59:23;;;;;;;10.83;1.97;;;9.00;1.00;;;;;;5045396;28;20680;-86
2023/01/12 06:01:49;;;;;;;17.27;3.13;;;9.00;1.00;;;;;;5023723;28;20201;-86
2023/01/12 06:04:14;;;;;;;13.40;2.50;;;9.00;1.00;;;;;;5015746;28;20187;-86
2023/01/12 06:06:40;;;;;;;16.30;2.93;;;9.00;1.00;;;;;;5031830;28;20186;-85
2023/01/12 06:09:05;;;;;;;17.17;2.57;;;9.00;1.00;;;;;;5033907;28;20220;-85
2023/01/12 06:14:15;;;;;;;11.85;1.80;;;9.00;1.00;;;;;;5022803;28;20202;-85
2023/01/12 06:16:42;;;;;;;13.93;2.30;;;9.00;1.00;;;;;;5025751;28;20175;-86
2023/01/12 06:19:09;;;;;;;8.43;2.33;;;9.00;1.00;;;;;;5039832;28;20212;-85
2023/01/12 06:21:35;;;;;;;10.90;1.73;;;9.00;1.00;;;;;;5035466;28;20442;-85
2023/01/12 06:24:00;;;;;;;6.00;2.10;;;9.10;1.00;;;;;;5031562;28;20437;-85
2023/01/12 06:26:26;;;;;;;8.50;2.10;;;9.00;1.00;;;;;;5031277;28;20744;-85
2023/01/12 06:28:52;;;;;;;12.93;3.10;;;9.00;1.00;;;;;;5039412;28;20438;-85
2023/01/12 06:31:17;;;;;;;7.40;1.80;;;9.00;1.00;;;;;;5038756;28;20192;-85
2023/01/12 06:33:43;;;;;;;6.43;1.83;;;9.00;1.00;;;;;;5020060;28;20178;-85
2023/01/12 06:36:09;;;;;;;10.37;1.97;;;9.10;1.00;;;;;;5033208;28;20205;-85
2023/01/12 06:38:36;;;;;;;12.87;2.30;;;9.10;1.00;;;;;;5026714;28;20186;-86
2023/01/12 06:41:07;;;;;;;10.00;2.33;;;9.10;1.00;;;;;;5029780;28;20468;-85
2023/01/12 06:43:33;;;;;;;12.77;2.60;;;9.10;1.00;;;;;;5026559;28;20482;-85
2023/01/12 06:45:58;;;;;;;8.83;2.40;;;9.10;1.00;;;;;;5046295;28;20451;-85
2023/01/12 06:48:24;;;;;;;8.23;1.80;;;9.10;1.00;;;;;;5026258;28;20314;-85
2023/01/12 06:50:59;;;;;;;8.60;2.00;;;9.20;1.00;;;;;;5034358;28;20217;-85
2023/01/12 06:53:24;;;;;;;9.52;2.70;;;9.20;1.00;;;;;;5033736;28;20438;-85
2023/01/12 06:55:50;;;;;;;9.33;1.83;;;9.20;1.00;;;;;;5031847;28;20650;-85
2023/01/12 06:58:16;;;;;;;11.27;2.13;;;9.20;1.00;;;;;;5024626;28;20185;-84
2023/01/12 07:00:42;;;;;;;8.83;2.53;;;9.20;1.00;;;;;;5025703;28;21029;-84
2023/01/12 07:03:14;;;;;;;14.77;2.30;;;9.30;1.00;;;;;;5049668;28;20906;-84
2023/01/12 07:05:40;;;;;;;9.33;1.60;;;9.30;1.00;;;;;;5048092;28;20187;-85
2023/01/12 07:08:05;;;;;;;11.40;1.90;;;9.30;1.00;;;;;;5029592;28;20498;-84
2023/01/12 07:10:31;;;;;;;9.30;2.13;;;9.40;1.00;;;;;;5041930;28;20205;-84
2023/01/12 07:12:59;;;;;;;5.80;1.77;;;9.40;1.00;;;;;;5035222;28;20248;-85
2023/01/12 07:15:25;;;;;;;8.90;1.93;;;9.40;1.00;;;;;;5017278;28;20178;-85
2023/01/12 07:17:57;;;;;;;6.13;2.03;;;9.40;1.00;;;;;;5021036;28;20815;-84
2023/01/12 07:20:24;;;;;;;8.10;1.67;;;9.50;1.00;;;;;;5033720;28;20640;-84
2023/01/12 07:22:49;;;;;;;13.63;2.20;;;9.50;1.00;;;;;;5025285;28;20793;-84
2023/01/12 07:25:15;;;;;;;3.47;1.90;;;9.50;1.00;;;;;;5035462;28;20507;-84
2023/01/12 07:27:51;;;;;;;7.80;2.10;;;9.50;1.00;;;;;;5024173;28;20539;-84
2023/01/12 07:30:20;;;;;;;4.23;1.40;;;9.50;1.00;;;;;;5022411;28;20467;-84
2023/01/12 07:32:47;;;;;;;6.17;1.90;;;9.50;1.00;;;;;;5030545;28;20794;-82
2023/01/12 07:35:13;;;;;;;8.43;2.73;;;9.60;1.00;;;;;;5034437;28;20432;-83
2023/01/12 07:37:38;;;;;;;8.30;2.23;;;9.60;1.00;;;;;;5025206;28;20461;-82
2023/01/12 07:40:05;;;;;;;7.13;2.23;;;9.60;1.00;;;;;;5024130;28;20887;-82
2023/01/12 07:42:32;;;;;;;7.37;2.57;;;9.70;1.00;;;;;;5029008;28;20273;-82
2023/01/12 07:44:57;;;;;;;6.10;1.77;;;9.70;1.00;;;;;;5034177;28;20443;-82
2023/01/12 07:47:24;;;;;;;10.13;3.20;;;9.70;1.00;;;;;;5049017;28;20424;-82
2023/01/12 07:49:49;;;;;;;10.87;2.00;;;9.70;1.00;;;;;;5027084;28;20245;-82
2023/01/12 07:52:15;;;;;;;7.53;2.20;;;9.70;1.00;;;;;;5026029;28;20417;-82
2023/01/12 07:54:40;;;;;;;8.90;2.17;;;9.70;1.00;;;;;;5025863;28;20600;-82
2023/01/12 07:57:09;;;;;;;5.87;1.50;;;9.70;1.00;;;;;;5028019;28;20204;-82
2023/01/12 07:59:35;;;;;;;6.27;1.33;;;9.70;1.00;;;;;;5017078;28;20210;-83
2023/01/12 08:02:00;;;;;;;6.33;1.50;;;9.70;1.00;;;;;;5024680;28;20440;-83
2023/01/12 08:04:26;;;;;;;5.00;1.60;;;9.70;1.00;;;;;;5014085;28;20183;-82
2023/01/12 08:06:51;;;;;;;5.70;1.30;;;9.70;1.00;;;;;;5022606;28;20283;-82
2023/01/12 08:09:17;;;;;;;3.23;1.37;;;9.70;1.00;;;;;;5019673;28;20221;-84
2023/01/12 08:11:42;;;;;;;3.60;1.53;;;9.70;1.00;;;;;;5026681;28;20182;-82
2023/01/12 08:14:20;;;;;;;4.80;1.50;;;9.80;1.00;;;;;;5024824;28;20187;-83
2023/01/12 08:16:48;;;;;;;10.33;1.43;;;9.80;1.00;;;;;;5018486;28;20186;-82
2023/01/12 08:19:19;;;;;;;5.60;1.40;;;9.80;1.00;;;;;;5018937;28;20544;-83
2023/01/12 08:21:50;;;;;;;3.37;1.30;;;9.90;1.00;;;;;;5020323;28;20477;-83
2023/01/12 08:24:21;;;;;;;4.50;1.20;;;9.90;1.00;;;;;;5025956;28;20457;-83
2023/01/12 08:26:50;;;;;;;2.70;1.40;;;9.90;1.00;;;;;;5026233;28;20522;-83
2023/01/12 08:29:22;;;;;;;5.80;1.20;;;10.00;1.00;;;;;;5036417;28;20481;-83
2023/01/12 08:31:48;;;;;;;2.60;1.30;;;10.00;1.00;;;;;;5036094;28;20433;-83
2023/01/12 08:34:13;;;;;;;8.17;1.60;;;10.00;1.00;;;;;;5040475;28;20439;-83
2023/01/12 08:36:41;;;;;;;5.47;1.13;;;10.10;1.00;;;;;;5033968;28;20970;-83
2023/01/12 08:39:06;;;;;;;4.80;1.10;;;10.10;1.00;;;;;;5028932;28;20214;-83
2023/01/12 08:41:32;;;;;;;5.00;1.50;;;10.10;1.00;;;;;;5033082;28;20995;-83
2023/01/12 08:44:09;;;;;;;3.37;1.23;;;10.10;1.00;;;;;;5023726;28;20192;-84
2023/01/12 08:46:50;;;;;;;3.63;0.97;;;10.10;1.00;;;;;;5034438;28;20204;-83
2023/01/12 08:49:17;;;;;;;3.60;1.93;;;10.10;1.00;;;;;;5026251;28;20479;-83
2023/01/12 08:51:44;;;;;;;7.83;1.47;;;10.20;1.00;;;;;;5032464;28;20461;-83
2023/01/12 08:54:11;;;;;;;5.73;2.17;;;10.20;1.00;;;;;;5023959;28;20442;-84
2023/01/12 08:56:36;;;;;;;4.60;1.30;;;10.20;1.00;;;;;;5035875;28;20447;-83
2023/01/12 08:59:02;;;;;;;8.10;1.07;;;10.30;1.00;;;;;;5043338;28;20468;-84
2023/01/12 09:01:28;;;;;;;3.30;1.10;;;10.30;1.00;;;;;;5034076;28;20561;-83
2023/01/12 09:03:58;;;;;;;5.07;1.80;;;10.30;1.00;;;;;;5040084;28;20455;-84
2023/01/12 09:06:26;;;;;;;4.17;1.30;;;10.30;1.00;;;;;;5040076;28;20448;-85
2023/01/12 09:08:56;;;;;;;3.27;1.20;;;10.40;1.00;;;;;;5033603;28;20526;-85
2023/01/12 09:11:25;;;;;;;4.73;1.50;;;10.40;1.00;;;;;;5049470;28;20964;-85
2023/01/12 09:13:51;;;;;;;6.37;1.70;;;10.40;1.00;;;;;;5030764;28;20456;-85
2023/01/12 09:16:18;;;;;;;6.87;1.30;;;10.50;1.00;;;;;;5040225;28;20436;-85
2023/01/12 09:18:44;;;;;;;4.60;1.20;;;10.50;1.00;;;;;;5037685;28;20190;-85
2023/01/12 09:21:14;;;;;;;4.47;1.00;;;10.50;1.00;;;;;;5022172;28;20445;-85
2023/01/12 09:23:40;;;;;;;3.17;1.30;;;10.50;1.00;;;;;;5026368;28;20796;-86
2023/01/12 09:26:08;;;;;;;5.10;1.60;;;10.50;1.00;;;;;;5024158;28;20539;-86
2023/01/12 09:28:35;;;;;;;6.60;1.33;;;10.60;1.00;;;;;;5024811;28;20480;-84
2023/01/12 09:31:15;;;;;;;5.63;1.00;;;10.60;1.00;;;;;;5038751;28;20450;-85
2023/01/12 09:33:41;;;;;;;4.10;1.33;;;10.60;1.00;;;;;;5017199;28;20437;-86
2023/01/12 09:36:12;;;;;;;7.77;1.40;;;10.60;1.00;;;;;;5028846;28;20443;-86
2023/01/12 09:38:40;;;;;;;6.03;1.47;;;10.60;1.00;;;;;;5038918;28;20460;-85
2023/01/12 09:41:14;;;;;;;5.90;1.37;;;10.60;1.00;;;;;;5036302;28;20456;-85
2023/01/12 09:49:20;;;;;;;8.97;1.57;;;10.60;1.00;;;;;;5016306;28;20899;-85
2023/01/12 09:52:17;;;;;;;3.00;1.43;;;10.70;1.00;;;;;;5035861;28;20824;-85
2023/01/12 09:54:47;;;;;;;7.07;1.87;;;10.70;1.00;;;;;;5024353;28;20490;-85
2023/01/12 09:57:50;;;;;;;5.73;1.63;;;10.80;1.00;;;;;;5026382;28;20967;-85
2023/01/12 10:00:17;;;;;;;3.43;1.30;;;10.80;1.00;;;;;;5035702;28;20493;-84
2023/01/12 10:02:48;;;;;;;2.63;1.10;;;10.80;1.00;;;;;;5045373;28;20451;-85
2023/01/12 10:05:26;;;;;;;2.80;1.10;;;10.80;1.00;;;;;;5048637;28;20440;-85
2023/01/12 10:07:54;;;;;;;2.93;1.30;;;10.80;1.00;;;;;;5030141;28;20510;-85
2023/01/12 10:10:20;;;;;;;2.00;1.10;;;10.80;1.00;;;;;;5015998;28;20487;-85
2023/01/12 10:12:54;;;;;;;7.50;1.13;;;10.90;1.00;;;;;;5034338;28;20872;-85
2023/01/12 10:15:52;;;;;;;9.87;1.60;;;11.00;1.00;;;;;;5031268;28;20176;-85
2023/01/12 10:18:30;;;;;;;5.57;1.27;;;11.00;1.00;;;;;;5033205;28;20524;-84
2023/01/12 10:20:57;;;;;;;9.60;1.67;;;11.00;1.00;;;;;;5031287;28;20461;-85
2023/01/12 10:23:26;;;;;;;4.67;1.60;;;11.10;1.00;;;;;;5023106;28;20502;-84
2023/01/12 10:26:07;;;;;;;5.43;1.40;;;11.20;1.00;;;;;;5030804;28;20438;-85
2023/01/12 10:28:35;;;;;;;4.53;1.10;;;11.30;1.00;;;;;;5031266;28;20455;-85
2023/01/12 10:31:02;;;;;;;6.10;1.30;;;11.40;1.00;;;;;;5025366;28;20441;-83
2023/01/12 10:33:33;;;;;;;4.90;1.07;;;11.50;1.00;;;;;;5026021;28;20448;-85
2023/01/12 10:36:24;;;;;;;3.13;1.40;;;11.50;1.00;;;;;;5031263;28;20448;-85
2023/01/12 10:38:56;;;;;;;6.80;1.40;;;11.60;1.00;;;;;;5019949;28;20446;-84
2023/01/12 10:41:25;;;;;;;4.13;1.30;;;11.60;1.00;;;;;;5039656;28;20443;-85
2023/01/12 10:43:59;;;;;;;4.17;1.43;;;11.50;1.00;;;;;;5022861;28;20436;-85
2023/01/12 10:46:33;;;;;;;4.30;0.97;;;11.60;1.00;;;;;;5027292;28;20437;-85
2023/01/12 10:49:18;;;;;;;5.33;1.20;;;11.50;1.00;;;;;;5030202;28;20841;-85
2023/01/12 10:51:56;;;;;;;3.90;1.40;;;11.60;1.00;;;;;;5027054;28;20516;-85
2023/01/12 10:54:26;;;;;;;3.40;1.23;;;11.60;1.00;;;;;;5029129;28;20416;-85
2023/01/12 10:57:34;;;;;;;3.03;1.27;;;11.50;1.00;;;;;;5033139;28;20428;-85
2023/01/12 11:00:01;;;;;;;8.13;1.60;;;11.50;1.00;;;;;;5041617;28;20970;-84
2023/01/12 11:02:43;;;;;;;8.80;1.50;;;11.50;1.00;;;;;;5033688;28;20428;-85
2023/01/12 11:05:37;;;;;;;2.80;1.20;;;11.60;1.00;;;;;;5031076;28;20426;-85
2023/01/12 11:08:23;;;;;;;6.63;1.50;;;11.60;1.00;;;;;;5009534;28;20443;-85
2023/01/12 11:10:49;;;;;;;6.17;1.53;;;11.60;1.00;;;;;;5026915;28;20473;-85
2023/01/12 11:13:29;;;;;;;3.90;1.90;;;11.60;1.00;;;;;;5022995;28;20446;-85
2023/01/12 11:16:23;;;;;;;6.40;1.07;;;11.60;1.00;;;;;;5034936;28;20320;-85
2023/01/12 11:19:06;;;;;;;5.13;1.30;;;11.60;1.00;;;;;;5034085;28;20428;-83
2023/01/12 11:21:36;;;;;;;2.83;1.03;;;11.60;1.00;;;;;;5021488;28;20442;-85
2023/01/12 11:24:12;;;;;;;2.60;1.17;;;11.50;1.00;;;;;;5030810;28;20540;-86
2023/01/12 11:27:12;;;;;;;6.10;1.63;;;11.50;1.00;;;;;;5024169;28;20432;-85
2023/01/12 11:29:49;;;;;;;4.07;1.30;;;11.50;1.00;;;;;;5011955;28;20548;-85
2023/01/12 11:32:30;;;;;;;5.77;1.17;;;11.60;1.00;;;;;;5020167;28;20516;-85
2023/01/12 11:35:18;;;;;;;4.43;0.97;;;11.60;1.00;;;;;;5028383;28;20490;-86
2023/01/12 11:37:45;;;;;;;3.93;1.63;;;11.70;1.00;;;;;;5013594;28;20467;-85
2023/01/12 11:40:28;;;;;;;3.13;1.30;;;11.70;1.00;;;;;;5028229;28;21336;-86
2023/01/12 11:45:55;;;;;;;5.20;1.70;;;11.80;1.00;;;;;;5020018;28;20815;-85
2023/01/12 11:48:29;;;;;;;5.30;1.60;;;11.80;1.00;;;;;;5032638;28;21001;-85
2023/01/12 11:50:59;;;;;;;5.77;1.20;;;11.80;1.00;;;;;;5030483;28;20458;-85
2023/01/12 11:53:25;;;;;;;7.53;1.70;;;11.90;1.00;;;;;;5032942;28;20425;-85
2023/01/12 11:56:20;;;;;;;3.10;1.40;;;11.90;1.00;;;;;;5022881;28;20519;-85
2023/01/12 11:59:18;;;;;;;5.53;1.60;;;11.80;1.00;;;;;;5031976;28;20191;-86
2023/01/12 12:02:31;;;;;;;6.87;2.27;;;11.90;1.00;;;;;;5033375;28;20440;-85
2023/01/12 12:05:08;;;;;;;12.13;1.40;;;11.90;1.00;;;;;;5026805;28;20773;-85
2023/01/12 12:08:24;;;;;;;1.40;0.83;;;11.90;1.00;;;;;;5014253;28;20833;-85
2023/01/12 12:10:56;;;;;;;2.47;1.13;;;11.90;1.00;;;;;;5023188;28;20474;-86
2023/01/12 12:13:29;;;;;;;4.30;1.10;;;11.80;1.00;;;;;;5023304;28;20909;-86
2023/01/12 12:15:54;;;;;;;4.10;0.90;;;11.70;1.00;;;;;;5023647;28;20487;-85
2023/01/12 12:18:38;;;;;;;2.60;0.83;;;11.70;1.00;;;;;;5025613;28;20783;-86
2023/01/12 12:21:22;;;;;;;3.17;1.13;;;11.70;1.00;;;;;;5020167;28;20179;-84
2023/01/12 12:23:56;;;;;;;6.10;0.90;;;11.60;1.00;;;;;;5021917;28;20437;-84
2023/01/12 12:26:56;;;;;;;4.50;2.00;;;11.60;1.00;;;;;;5030853;28;20514;-85
2023/01/12 12:29:53;;;;;;;2.13;0.97;;;11.60;1.00;;;;;;5027859;28;21023;-86
2023/01/12 12:32:41;;;;;;;6.80;1.00;;;11.60;1.00;;;;;;5021034;28;20496;-85
2023/01/12 12:35:13;;;;;;;1.33;0.80;;;11.60;1.00;;;;;;5031767;28;20419;-86
2023/01/12 12:37:51;;;;;;;4.53;1.33;;;11.60;1.00;;;;;;5024363;28;20437;-85
2023/01/12 12:45:15;;;;;;;1.53;0.80;;;11.50;1.00;;;;;;5032360;28;20460;-86
2023/01/12 12:46:28;;;;;;;6.73;0.93;;;11.50;1.00;;;;;;5021465;28;20443;-86
2023/01/12 12:48:59;;;;;;;5.70;0.90;;;11.40;1.00;;;;;;5035556;28;20624;-85
2023/01/12 12:51:28;;;;;;;2.27;1.00;;;11.40;1.00;;;;;;5040638;28;20435;-85
2023/01/12 12:53:57;;;;;;;2.90;1.17;;;11.40;1.00;;;;;;5033555;28;20441;-85
2023/01/12 12:56:27;;;;;;;3.77;1.10;;;11.40;1.00;;;;;;5015824;28;20825;-85
2023/01/12 12:58:55;;;;;;;2.23;1.10;;;11.40;1.00;;;;;;5029212;28;20461;-85
2023/01/12 13:01:24;;;;;;;2.10;0.90;;;11.50;1.00;;;;;;5034792;28;20526;-86
2023/01/12 13:03:59;;;;;;;5.13;0.87;;;11.50;1.00;;;;;;5031642;28;20516;-89
2023/01/12 13:06:52;;;;;;;2.93;1.20;;;11.50;1.00;;;;;;5041760;28;20436;-85
2023/01/12 13:09:24;;;;;;;7.83;4.07;;;11.50;1.00;;;;;;5024195;28;20584;-87
2023/01/12 13:11:57;;;;;;;2.97;0.97;;;11.50;1.00;;;;;;5020992;28;20863;-88
2023/01/12 13:14:47;;;;;;;4.60;1.23;;;11.50;1.00;;;;;;5022058;28;21065;-88
2023/01/12 13:17:19;;;;;;;4.10;0.93;;;11.50;1.00;;;;;;5036318;28;20923;-88
2023/01/12 13:20:10;;;;;;;7.27;1.40;;;11.50;1.00;;;;;;5017035;28;20975;-88
2023/01/12 13:22:47;;;;;;;3.40;1.00;;;11.50;1.00;;;;;;5018026;28;20984;-86
2023/01/12 13:25:18;;;;;;;2.47;0.73;;;11.50;1.00;;;;;;5016334;28;20449;-86
2023/01/12 13:30:27;;;;;;;3.63;1.33;;;11.50;1.00;;;;;;5020707;28;20981;-85
2023/01/12 13:32:57;;;;;;;1.77;0.80;;;11.50;1.00;;;;;;5028394;28;20434;-85
2023/01/12 13:35:32;;;;;;;1.30;0.93;;;11.50;1.00;;;;;;5033454;28;20433;-85
2023/01/12 13:38:14;;;;;;;3.20;0.97;;;11.50;1.00;;;;;;5028204;28;20451;-85
2023/01/12 13:40:43;;;;;;;2.87;1.00;;;11.50;1.00;;;;;;5034740;28;20452;-85
2023/01/12 13:43:36;;;;;;;9.93;0.97;;;11.60;1.00;;;;;;5039829;28;20816;-84
2023/01/12 13:46:12;;;;;;;5.37;2.00;;;11.60;1.00;;;;;;5015032;28;20536;-84
2023/01/12 13:48:42;;;;;;;5.60;1.10;;;11.60;1.00;;;;;;5022764;28;20478;-84
2023/01/12 13:51:24;;;;;;;1.17;0.90;;;11.60;1.00;;;;;;5034729;28;21098;-85